Latest Weather Observations for Robe Airport

IDS60801

Issued at 9:42 pm CST Thursday 24 September 2020 (issued every 10 minutes, with the page automatically refreshed every 10 minutes)

About weather observations | Map of weather stations | Latest weather observations for SA | Other Formats
Station Details ID: 026105 Name: ROBE AIRFIELD Lat: -37.18 Lon: 139.81 Height: 3.0 m
Data from the previous 72 hours. | See also: Recent months at Robe Airport
Date/Time
CST
Temp
°C
App
Temp
°C
Dew
Point
°C
Rel
Hum
%
Delta-T
°C
Wind Press
QNH
hPa
Press
MSL
hPa
Rain since
9am
mm
Dir  Spd
km/h
Gust
km/h
Spd
kts
Gust
kts
24/09:30pm 6.6 4.2 5.1 90 0.7 WSW 7 9 4 5 1006.2 1006.2 10.4
24/09:00pm 7.5 4.1 6.0 90 0.7 WSW 13 20 7 11 1006.4 1006.4 10.4
24/08:30pm 8.0 5.7 5.8 86 1.0 WSW 7 30 4 16 1006.5 1006.5 10.0
24/08:00pm 7.5 5.4 5.6 88 0.8 WSW 6 9 3 5 1006.6 1006.6 10.0
24/07:30pm 7.5 4.8 5.5 87 0.9 SW 9 17 5 9 1006.6 1006.6 10.0
24/07:00pm 7.9 4.8 5.5 85 1.1 WSW 11 19 6 10 1006.3 1006.3 10.0
24/06:30pm 8.4 4.1 6.9 90 0.7 WSW 19 41 10 22 1006.2 1006.2 9.8
24/06:00pm 8.7 5.2 7.0 89 0.8 SW 15 33 8 18 1006.0 1006.0 9.6
24/05:30pm 9.2 6.1 7.3 88 0.9 WSW 13 26 7 14 1006.0 1006.0 9.6
24/05:00pm 9.8 8.1 8.2 90 0.8 WSW 7 13 4 7 1005.8 1005.8 9.4
24/04:30pm 9.9 8.0 9.0 94 0.4 WSW 9 17 5 9 1005.6 1005.6 9.4
24/04:00pm 9.8 7.9 8.9 94 0.4 WSW 9 19 5 10 1005.8 1005.8 9.4
24/03:30pm 10.2 9.0 9.4 95 0.4 W 6 13 3 7 1005.8 1005.8 9.4
24/03:00pm 9.9 8.6 9.1 95 0.4 WNW 6 11 3 6 1006.2 1006.2 9.4
24/02:30pm 10.2 7.6 9.4 95 0.4 WNW 13 22 7 12 1006.7 1006.7 8.8
24/02:00pm 9.6 7.7 9.0 96 0.3 NW 9 15 5 8 1007.3 1007.3 8.8
24/01:30pm 9.0 5.0 8.1 94 0.4 WNW 19 32 10 17 1008.1 1008.1 7.2
24/01:01pm 9.6 2.6 8.4 92 0.6 NW 35 54 19 29 1008.7 1008.7 3.8
24/01:00pm 9.5 2.1 8.3 92 0.6 NW 37 54 20 29 1008.7 1008.7 3.6
24/12:50pm 10.6 5.6 8.0 84 1.3 NW 24 44 13 24 1008.7 1008.7 3.2
24/12:30pm 11.1 8.1 9.4 89 0.9 WNW 15 22 8 12 1008.8 1008.8 3.2
24/12:00pm 13.0 10.0 10.7 86 1.2 NW 17 26 9 14 1009.3 1009.3 2.8
24/11:30am 9.3 5.3 8.2 93 0.5 WNW 19 30 10 16 1010.3 1010.3 2.6
24/11:09am 11.2 4.4 7.5 78 1.8 NW 33 59 18 32 1010.9 1010.9 0.2
24/11:00am 12.9 7.6 8.6 75 2.1 NW 26 41 14 22 1010.7 1010.7 0.2
24/10:30am 11.0 6.9 7.9 81 1.5 NW 19 28 10 15 1011.4 1011.4 0.2
24/10:00am 12.3 7.2 7.8 74 2.2 NW 24 35 13 19 1012.1 1012.1 0.0
24/09:30am 11.7 6.6 7.8 77 1.9 NW 24 35 13 19 1012.6 1012.6 0.0
24/09:00am 12.4 8.4 6.7 68 2.7 WNW 17 26 9 14 1012.7 1012.7 0.4
24/08:30am 12.0 7.9 6.3 68 2.7 WNW 17 24 9 13 1012.9 1012.9 0.4
24/08:00am 11.6 8.0 6.9 73 2.2 WNW 15 24 8 13 1013.1 1013.1 0.4
24/07:30am 11.3 7.5 6.0 70 2.5 WNW 15 24 8 13 1013.2 1013.2 0.4
24/07:00am 10.8 7.9 6.4 74 2.1 WNW 11 17 6 9 1013.4 1013.4 0.4
24/06:30am 10.6 7.2 6.0 73 2.1 WNW 13 22 7 12 1013.6 1013.6 0.4
24/06:00am 9.8 6.8 5.8 76 1.8 WNW 11 17 6 9 1013.7 1013.7 0.4
24/05:30am 9.5 7.0 6.6 82 1.3 WNW 9 17 5 9 1013.8 1013.8 0.4
24/05:00am 9.2 6.9 5.6 78 1.6 W 7 13 4 7 1013.9 1013.9 0.4
24/04:30am 9.6 7.0 6.0 78 1.7 W 9 15 5 8 1014.2 1014.2 0.4
24/04:00am 10.6 6.5 6.2 74 2.0 W 17 33 9 18 1014.4 1014.4 0.4
24/03:30am 10.5 7.6 4.4 66 2.7 W 9 17 5 9 1014.5 1014.5 0.4
24/03:00am 10.6 7.6 3.9 63 3.0 WSW 9 19 5 10 1014.6 1014.6 0.4
24/02:30am 10.0 7.0 4.0 66 2.6 WSW 9 17 5 9 1015.1 1015.1 0.4
24/02:00am 10.2 6.0 3.9 65 2.8 WSW 15 26 8 14 1015.5 1015.5 0.4
24/01:30am 10.3 7.5 5.3 71 2.3 WSW 9 19 5 10 1015.9 1015.9 0.4
24/01:00am 10.3 7.1 4.9 69 2.4 WSW 11 22 6 12 1016.2 1016.2 0.4
24/12:30am 9.7 6.9 5.3 74 2.0 WSW 9 13 5 7 1016.5 1016.5 0.4
24/12:00am 9.6 7.1 6.5 81 1.4 WSW 9 17 5 9 1016.7 1016.7 0.4
 
Date/Time
CST
Temp
°C
App
Temp
°C
Dew
Point
°C
Rel
Hum
%
Delta-T
°C
Wind Press
QNH
hPa
Press
MSL
hPa
Rain since
9am
mm
Dir  Spd
km/h
Gust
km/h
Spd
kts
Gust
kts
23/11:30pm 9.7 7.6 6.8 82 1.4 WSW 7 17 4 9 1017.2 1017.2 0.2
23/11:00pm 10.4 6.8 6.9 79 1.7 WSW 15 28 8 15 1017.5 1017.5 0.2
23/10:30pm 9.8 6.4 6.0 77 1.7 WSW 13 24 7 13 1017.6 1017.6 0.2
23/10:00pm 9.9 6.6 6.3 78 1.7 SW 13 19 7 10 1017.8 1017.8 0.2
23/09:30pm 10.4 6.4 6.5 77 1.8 SW 17 26 9 14 1017.9 1017.9 0.2
23/09:00pm 9.7 6.1 5.1 73 2.1 WSW 13 20 7 11 1018.0 1018.0 0.2
23/08:30pm 9.7 6.8 6.6 81 1.4 WSW 11 22 6 12 1018.0 1018.0 0.2
23/08:00pm 9.8 4.9 6.9 82 1.4 WSW 22 39 12 21 1018.2 1018.2 0.2
23/07:30pm 9.9 6.2 6.1 77 1.8 SSW 15 24 8 13 1017.8 1017.8 0.2
23/07:00pm 10.5 6.8 6.1 74 2.0 WSW 15 24 8 13 1017.4 1017.4 0.2
23/06:30pm 10.1 7.1 5.9 75 1.9 WSW 11 24 6 13 1017.3 1017.3 0.2
23/06:00pm 10.2 5.8 6.4 77 1.8 SW 19 33 10 18 1017.2 1017.2 0.2
23/05:30pm 10.6 6.3 5.4 70 2.4 SW 17 28 9 15 1017.0 1017.0 0.2
23/05:00pm 11.1 6.5 6.3 72 2.2 SW 20 33 11 18 1016.8 1016.8 0.2
23/04:30pm 11.2 6.8 6.7 74 2.1 SW 19 26 10 14 1016.6 1016.6 0.2
23/04:00pm 12.0 7.1 6.9 71 2.4 SW 22 35 12 19 1016.4 1016.4 0.2
23/03:30pm 11.9 6.9 6.4 69 2.6 SW 22 33 12 18 1016.2 1016.2 0.2
23/03:00pm 11.5 6.3 7.4 76 2.0 SW 24 37 13 20 1016.1 1016.1 0.2
23/02:46pm 10.9 5.2 8.3 84 1.3 SW 28 50 15 27 1016.2 1016.2 0.2
23/02:30pm 12.5 8.1 7.4 71 2.5 SW 20 33 11 18 1016.0 1016.0 0.2
23/02:00pm 12.5 7.1 7.8 73 2.3 SW 26 39 14 21 1016.1 1016.1 0.2
23/01:30pm 12.0 7.4 9.6 85 1.2 SSW 24 43 13 23 1016.1 1016.1 0.2
23/01:00pm 11.2 6.0 8.9 86 1.1 SW 26 44 14 24 1016.3 1016.3 0.2
23/12:30pm 11.2 5.6 8.9 86 1.1 SSW 28 37 15 20 1016.2 1016.2 0.2
23/12:00pm 11.2 6.6 9.6 90 0.8 SSW 24 33 13 18 1016.2 1016.2 0.2
23/11:30am 10.6 6.3 9.4 92 0.6 SSW 22 35 12 19 1016.1 1016.1 0.2
23/11:00am 11.4 7.6 9.8 90 0.8 SSW 20 28 11 15 1016.1 1016.1 0.2
23/10:30am 11.5 8.2 9.4 87 1.1 SW 17 24 9 13 1016.0 1016.0 0.2
23/10:00am 12.2 8.6 9.9 86 1.2 SW 19 30 10 16 1015.8 1015.8 0.2
23/09:30am 11.8 7.3 8.5 80 1.6 SW 22 35 12 19 1015.7 1015.7 0.0
23/09:00am 11.6 8.4 8.6 82 1.5 SW 15 24 8 13 1015.6 1015.6 0.6
23/08:30am 11.8 7.9 8.5 80 1.6 SW 19 32 10 17 1015.3 1015.3 0.6
23/08:00am 11.3 8.4 9.6 89 0.9 SW 15 24 8 13 1015.1 1015.1 0.6
23/07:30am 12.2 7.7 7.1 71 2.4 WSW 20 32 11 17 1014.8 1014.8 0.4
23/07:00am 11.5 7.7 7.6 77 1.9 WSW 17 30 9 16 1014.5 1014.5 0.4
23/06:30am 11.2 7.0 7.5 78 1.8 WSW 19 30 10 16 1014.1 1014.1 0.4
23/06:00am 11.0 7.6 7.7 80 1.6 WSW 15 28 8 15 1013.8 1013.8 0.4
23/05:30am 10.9 7.1 7.6 80 1.6 WSW 17 33 9 18 1013.4 1013.4 0.4
23/05:00am 11.1 7.3 7.6 79 1.7 WSW 17 32 9 17 1013.1 1013.1 0.4
23/04:30am 11.0 6.6 7.3 78 1.8 WSW 20 37 11 20 1012.8 1012.8 0.4
23/04:00am 11.1 6.9 8.1 82 1.5 SW 20 33 11 18 1012.5 1012.5 0.4
23/03:30am 10.9 6.8 7.8 81 1.5 WSW 19 35 10 19 1012.4 1012.4 0.4
23/03:00am 10.5 7.2 7.9 84 1.3 W 15 24 8 13 1012.4 1012.4 0.4
23/02:30am 10.8 7.1 7.9 82 1.4 WSW 17 32 9 17 1012.5 1012.5 0.4
23/02:00am 10.5 7.8 8.9 90 0.8 W 13 26 7 14 1012.5 1012.5 0.4
23/01:30am 10.8 6.8 8.2 84 1.3 W 19 32 10 17 1012.6 1012.6 0.2
23/01:00am 10.5 6.9 8.4 87 1.0 W 17 28 9 15 1012.7 1012.7 0.2
23/12:30am 11.7 8.5 8.4 80 1.6 W 15 24 8 13 1012.7 1012.7 0.2
23/12:00am 11.6 7.6 8.1 79 1.7 W 19 30 10 16 1012.7 1012.7 0.2
 
Date/Time
CST
Temp
°C
App
Temp
°C
Dew
Point
°C
Rel
Hum
%
Delta-T
°C
Wind Press
QNH
hPa
Press
MSL
hPa
Rain since
9am
mm
Dir  Spd
km/h
Gust
km/h
Spd
kts
Gust
kts
22/11:30pm 11.9 7.2 7.8 76 2.0 W 22 33 12 18 1012.6 1012.6 0.2
22/11:00pm 11.8 7.6 8.1 78 1.8 W 20 33 11 18 1012.8 1012.8 0.2
22/10:30pm 11.9 7.8 8.0 77 1.9 W 19 32 10 17 1012.8 1012.8 0.2
22/10:00pm 12.2 7.3 8.3 77 1.9 W 24 41 13 22 1012.8 1012.8 0.2
22/09:30pm 12.2 8.0 8.3 77 1.9 W 20 32 11 17 1012.7 1012.7 0.2
22/09:00pm 12.1 7.9 8.4 78 1.8 W 20 33 11 18 1012.7 1012.7 0.2
22/08:30pm 12.4 8.2 8.1 75 2.1 W 20 35 11 19 1012.5 1012.5 0.2
22/08:00pm 12.5 7.9 8.2 75 2.1 W 22 37 12 20 1012.3 1012.3 0.2
22/07:30pm 12.4 7.8 8.1 75 2.1 W 22 39 12 21 1012.1 1012.1 0.2
22/07:00pm 12.4 8.5 8.7 78 1.8 W 19 33 10 18 1011.7 1011.7 0.2
22/06:30pm 12.5 7.2 8.6 77 1.9 W 26 41 14 22 1011.3 1011.3 0.2
22/06:22pm 12.6 7.0 8.7 77 1.9 W 28 48 15 26 1011.2 1011.2 0.2
22/06:00pm 12.7 7.4 8.6 76 2.0 W 26 43 14 23 1011.0 1011.0 0.2
22/05:30pm 13.4 9.1 9.5 77 2.0 W 22 44 12 24 1010.5 1010.5 0.2
22/05:00pm 14.1 9.6 10.1 77 2.1 W 24 39 13 21 1010.2 1010.2 0.2
22/04:30pm 13.7 9.1 9.6 76 2.1 W 24 35 13 19 1009.8 1009.8 0.2
22/04:00pm 13.9 8.6 9.7 76 2.2 W 28 50 15 27 1009.6 1009.6 0.2
22/03:56pm 13.8 8.5 9.8 77 2.1 WNW 28 50 15 27 1009.5 1009.5 0.2
22/03:30pm 14.0 9.1 9.8 76 2.2 WNW 26 41 14 22 1009.4 1009.4 0.2
22/03:00pm 15.1 9.7 9.5 69 2.9 W 28 43 15 23 1009.2 1009.2 0.2
22/02:30pm 14.8 9.2 8.7 67 3.1 W 28 41 15 22 1009.1 1009.1 0.2
22/02:00pm 14.7 8.5 7.7 63 3.5 W 30 50 16 27 1008.9 1008.9 0.2
22/01:30pm 14.9 8.9 8.8 67 3.1 W 30 48 16 26 1008.7 1008.7 0.2
22/01:02pm 13.7 8.2 9.0 73 2.4 WNW 28 48 15 26 1008.5 1008.5 0.2
22/01:00pm 13.9 8.0 9.1 73 2.4 WNW 30 48 16 26 1008.4 1008.4 0.2
22/12:42pm 14.9 9.3 8.8 67 3.1 W 28 50 15 27 1008.3 1008.3 0.2
22/12:30pm 14.7 9.4 8.4 66 3.2 W 26 43 14 23 1008.3 1008.3 0.0
22/12:00pm 14.5 9.0 9.1 70 2.8 W 28 41 15 22 1007.9 1007.9 0.0
22/11:35am 14.4 8.8 8.8 69 2.8 WSW 28 46 15 25 1007.4 1007.4 0.0
22/11:30am 14.4 9.1 8.6 68 2.9 WSW 26 46 14 25 1007.4 1007.4 0.0
22/11:00am 13.6 8.3 9.8 78 2.0 W 28 50 15 27 1006.9 1006.9 0.0
22/10:30am 12.9 7.4 9.0 77 2.0 W 28 57 15 31 1006.4 1006.4 0.0
22/10:00am 14.2 7.5 9.8 75 2.3 W 35 56 19 30 1005.6 1005.6 0.0
22/09:30am 14.1 8.5 10.3 78 2.0 W 30 52 16 28 1005.1 1005.1 0.0
22/09:01am 13.1 7.3 9.5 79 1.8 WNW 30 54 16 29 1004.6 1004.6 0.0
22/09:00am 13.3 7.6 9.9 80 1.8 WNW 30 48 16 26 1004.6 1004.6 8.6
22/08:30am 13.2 5.8 9.8 80 1.8 WNW 39 61 21 33 1004.0 1004.0 8.6
22/08:00am 12.1 6.0 10.5 90 0.8 WNW 33 59 18 32 1003.4 1003.4 8.6
22/07:41am 12.2 6.2 10.8 91 0.7 WNW 33 54 18 29 1003.1 1003.1 8.0
22/07:30am 11.5 6.4 10.6 94 0.5 WNW 28 43 15 23 1003.1 1003.1 8.0
22/07:00am 11.9 4.6 10.3 90 0.8 WNW 39 63 21 34 1002.7 1002.7 7.2
22/06:46am 12.7 5.7 9.9 83 1.4 NW 37 56 20 30 1002.4 1002.4 6.8
22/06:30am 12.0 4.6 9.7 86 1.2 NW 39 56 21 30 1002.6 1002.6 6.8
22/06:07am 12.2 6.1 10.4 89 0.9 NW 33 63 18 34 1002.4 1002.4 6.8
22/06:00am 12.3 6.3 10.2 87 1.1 NW 32 46 17 25 1002.4 1002.4 6.8
22/05:31am 11.8 5.6 10.2 90 0.8 NW 33 52 18 28 1002.5 1002.5 6.2
22/05:30am 11.9 5.7 10.1 89 0.9 NW 33 50 18 27 1002.5 1002.5 6.2
22/05:00am 10.9 3.4 9.5 91 0.7 NW 39 65 21 35 1002.3 1002.3 5.8
22/04:31am 11.8 6.2 10.0 89 0.9 NW 30 48 16 26 1002.0 1002.0 5.4
22/04:30am 11.8 5.7 9.9 88 1.0 NW 32 48 17 26 1002.0 1002.0 5.4
22/04:12am 11.4 5.1 9.7 89 0.9 NW 33 52 18 28 1002.2 1002.2 5.4
22/04:00am 11.7 4.7 10.1 90 0.8 NW 37 54 20 29 1002.0 1002.0 5.2
22/03:30am 11.7 5.6 10.3 91 0.7 NW 33 50 18 27 1002.1 1002.1 5.2
22/03:03am 11.4 4.6 9.3 87 1.1 NW 35 54 19 29 1002.3 1002.3 5.2
22/03:00am 11.2 4.4 9.1 87 1.1 NW 35 46 19 25 1002.3 1002.3 5.2
22/02:34am 12.2 6.3 10.4 89 0.9 NW 32 52 17 28 1002.2 1002.2 4.8
22/02:30am 12.1 6.2 10.3 89 0.9 NW 32 46 17 25 1002.2 1002.2 4.8
22/02:12am 11.9 5.6 9.8 87 1.1 NW 33 52 18 28 1002.3 1002.3 4.8
22/02:00am 11.7 5.1 9.9 89 0.9 NW 35 52 19 28 1002.5 1002.5 4.8
22/01:30am 12.1 4.8 8.8 80 1.7 NW 37 56 20 30 1002.6 1002.6 4.4
22/01:01am 12.4 6.1 9.6 83 1.4 NW 33 52 18 28 1002.8 1002.8 4.4
22/01:00am 12.3 5.5 9.3 82 1.5 NW 35 52 19 28 1002.8 1002.8 4.4
22/12:43am 12.6 5.4 9.1 79 1.8 WNW 37 56 20 30 1002.8 1002.8 4.4
22/12:30am 12.7 6.0 9.5 81 1.6 NW 35 54 19 29 1002.9 1002.9 4.4
22/12:00am 12.1 6.1 10.2 88 1.0 NW 32 52 17 28 1003.0 1003.0 4.4
 
Date/Time
CST
Temp
°C
App
Temp
°C
Dew
Point
°C
Rel
Hum
%
Delta-T
°C
Wind Press
QNH
hPa
Press
MSL
hPa
Rain since
9am
mm
Dir  Spd
km/h
Gust
km/h
Spd
kts
Gust
kts
21/11:58pm 12.3 6.4 10.5 89 0.9 NW 32 50 17 27 1003.0 1003.0 4.4
21/11:30pm 12.8 7.4 9.4 80 1.7 WNW 28 41 15 22 1003.1 1003.1 4.0
21/11:00pm 12.0 6.5 9.0 82 1.5 NW 28 41 15 22 1003.1 1003.1 4.0
21/10:30pm 12.8 6.8 10.2 84 1.3 WNW 32 43 17 23 1003.1 1003.1 4.0
21/10:00pm 11.4 6.4 9.5 88 1.0 NW 26 41 14 22 1003.3 1003.3 4.0

Other formats

Comma delimited format used in spreadsheet applications
http://www.bom.gov.au/fwo/IDS60801/IDS60801.95816.axf

JavaScript Object Notation format (JSON) in row-major order
http://www.bom.gov.au/fwo/IDS60801/IDS60801.95816.json

Data quality

Most of these data are generated automatically and are frequently updated. Quality checks on data are not normally performed. It is possible for incorrect values to appear. Refer to information at About Latest Weather Observations and please check the disclaimer before using these data.